createdAt,value
2023-04-20T00:00:35.820Z,63.07
2023-04-20T00:05:37.491Z,64.24
2023-04-20T00:10:39.464Z,64.92
2023-04-20T00:15:41.121Z,64.83
2023-04-20T00:20:42.727Z,64.59
2023-04-20T00:25:44.559Z,63.61
2023-04-20T00:30:46.231Z,63.78
2023-04-20T00:35:48.119Z,63.24
2023-04-20T00:40:50.655Z,61.30
2023-04-20T00:45:52.495Z,61.59
2023-04-20T00:50:54.663Z,61.31
2023-04-20T00:55:56.724Z,59.15
2023-04-20T01:00:58.781Z,58.51
2023-04-20T01:06:01.387Z,57.17
2023-04-20T01:11:03.635Z,58.01
2023-04-20T01:16:05.413Z,57.90
2023-04-20T01:21:07.244Z,58.25
2023-04-20T01:26:11.267Z,57.59
2023-04-20T01:31:13.741Z,57.89
2023-04-20T01:36:15.950Z,57.27
2023-04-20T01:41:19.905Z,56.66
2023-04-20T01:46:21.784Z,58.51
2023-04-20T01:51:23.440Z,58.08
2023-04-20T01:56:25.164Z,59.04
2023-04-20T02:01:27.051Z,58.53
2023-04-20T02:06:29.076Z,59.75
2023-04-20T02:11:30.820Z,60.11
2023-04-20T02:16:32.534Z,60.57
2023-04-20T02:21:34.213Z,61.17
2023-04-20T02:26:36.199Z,61.55
2023-04-20T02:31:37.975Z,62.17
2023-04-20T02:36:39.758Z,61.78
2023-04-20T02:41:41.259Z,62.72
2023-04-20T02:46:43.468Z,63.57
2023-04-20T02:51:45.702Z,63.62
2023-04-20T02:56:47.319Z,64.22
2023-04-20T03:01:49.457Z,64.48
2023-04-20T03:06:55.144Z,65.92
2023-04-20T03:12:01.898Z,66.26
2023-04-20T03:17:24.138Z,67.37
2023-04-20T03:22:26.288Z,69.42
2023-04-20T03:27:32.589Z,71.59
2023-04-20T03:32:42.089Z,74.29
2023-04-20T03:37:43.930Z,74.55
2023-04-20T03:42:46.006Z,73.50
2023-04-20T03:47:47.886Z,72.96
2023-04-20T03:52:49.604Z,71.67
2023-04-20T03:57:51.359Z,70.91
2023-04-20T04:02:53.635Z,70.97
2023-04-20T04:08:00.441Z,70.36
2023-04-20T04:13:03.566Z,70.14
2023-04-20T04:18:05.940Z,69.58
2023-04-20T04:23:10.688Z,69.19
2023-04-20T04:28:31.014Z,71.83
2023-04-20T04:33:45.919Z,81.48
2023-04-20T04:38:53.312Z,98.31
2023-04-20T04:43:56.685Z,100.00
2023-04-20T04:49:04.606Z,100.00
2023-04-20T04:54:06.312Z,100.00
2023-04-20T04:59:08.164Z,100.00
2023-04-20T05:04:09.868Z,100.00
2023-04-20T05:09:11.572Z,100.00
2023-04-20T05:14:13.712Z,100.00
2023-04-20T05:19:15.441Z,100.00
2023-04-20T05:24:18.459Z,100.00
2023-04-20T05:29:20.222Z,100.00
2023-04-20T05:34:21.808Z,100.00
2023-04-20T05:39:23.449Z,100.00
2023-04-20T05:44:25.504Z,100.00
2023-04-20T05:49:27.077Z,100.00
2023-04-20T05:54:29.402Z,100.00
2023-04-20T05:59:31.634Z,100.00
2023-04-20T06:04:33.407Z,100.00
2023-04-20T06:09:35.770Z,100.00
2023-04-20T06:14:37.328Z,100.00
2023-04-20T06:19:39.097Z,100.00
2023-04-20T06:24:41.109Z,100.00
2023-04-20T06:29:42.685Z,100.00
2023-04-20T06:34:44.534Z,100.00
2023-04-20T06:39:46.130Z,100.00
2023-04-20T06:44:47.745Z,100.00
2023-04-20T06:49:49.284Z,100.00
2023-04-20T06:54:50.841Z,100.00
2023-04-20T06:59:52.422Z,100.00
2023-04-20T07:04:59.758Z,100.00
2023-04-20T07:10:01.344Z,100.00
2023-04-20T07:15:04.413Z,100.00
2023-04-20T07:20:07.011Z,100.00
2023-04-20T07:25:09.688Z,100.00
2023-04-20T07:30:12.000Z,100.00
2023-04-20T07:35:13.569Z,100.00
2023-04-20T07:40:15.147Z,100.00
2023-04-20T07:45:16.733Z,100.00
2023-04-20T07:50:18.247Z,100.00
2023-04-20T07:55:19.878Z,100.00
2023-04-20T08:00:21.434Z,100.00
2023-04-20T08:05:23.190Z,100.00
2023-04-20T08:10:25.013Z,100.00
2023-04-20T08:15:26.588Z,100.00
2023-04-20T08:20:28.196Z,100.00
2023-04-20T08:25:29.726Z,100.00
2023-04-20T08:30:31.210Z,100.00
2023-04-20T08:35:32.696Z,100.00
2023-04-20T08:40:36.329Z,100.00
2023-04-20T08:45:38.820Z,100.00
2023-04-20T08:50:43.725Z,100.00
2023-04-20T08:55:45.320Z,100.00
2023-04-20T09:00:48.117Z,100.00
2023-04-20T09:05:49.947Z,100.00
2023-04-20T09:10:51.447Z,100.00
2023-04-20T09:15:53.044Z,100.00
2023-04-20T09:20:55.227Z,100.00
2023-04-20T09:25:56.870Z,100.00
2023-04-20T09:30:58.386Z,100.00
2023-04-20T09:36:04.737Z,100.00
2023-04-20T09:41:07.144Z,100.00
2023-04-20T09:46:09.171Z,100.00
2023-04-20T09:51:11.220Z,100.00
2023-04-20T09:56:15.398Z,100.00
2023-04-20T10:01:17.529Z,100.00
2023-04-20T10:06:19.215Z,100.00
2023-04-20T10:11:51.550Z,100.00
2023-04-20T10:17:09.559Z,100.00
2023-04-20T10:22:26.516Z,100.00
2023-04-20T10:27:28.462Z,100.00
2023-04-20T10:32:30.125Z,100.00
2023-04-20T10:37:32.359Z,100.00
2023-04-20T10:42:44.359Z,100.00
2023-04-20T10:47:45.926Z,100.00
2023-04-20T10:52:47.671Z,100.00
2023-04-20T10:57:50.027Z,100.00
2023-04-20T11:02:56.216Z,100.00
2023-04-20T11:08:00.381Z,100.00
2023-04-20T11:13:02.241Z,100.00
2023-04-20T11:18:11.501Z,100.00
2023-04-20T11:23:13.109Z,100.00
2023-04-20T11:28:14.914Z,100.00
2023-04-20T11:33:32.283Z,100.00
2023-04-20T11:38:34.866Z,100.00
2023-04-20T11:43:36.369Z,100.00
2023-04-20T11:48:37.878Z,96.23
2023-04-20T11:53:39.414Z,90.67
2023-04-20T11:58:41.384Z,97.33
2023-04-20T12:03:47.015Z,96.22
2023-04-20T12:08:49.581Z,97.15
2023-04-20T12:13:51.450Z,100.00
2023-04-20T12:18:53.471Z,100.00
2023-04-20T12:23:55.038Z,100.00
2023-04-20T12:28:57.782Z,100.00
2023-04-20T12:33:59.693Z,96.00
2023-04-20T12:39:01.815Z,99.19
2023-04-20T12:44:06.469Z,91.45
2023-04-20T12:49:10.133Z,90.10
2023-04-20T12:54:12.232Z,93.38
2023-04-20T12:59:14.005Z,85.83
2023-04-20T13:04:16.133Z,84.29
2023-04-20T13:09:18.158Z,81.84
2023-04-20T13:14:20.352Z,83.19
2023-04-20T13:19:22.128Z,84.56
2023-04-20T13:24:23.676Z,80.20
2023-04-20T13:29:26.120Z,73.79
2023-04-20T13:34:27.660Z,79.40
2023-04-20T13:39:29.747Z,74.02
2023-04-20T13:44:31.344Z,62.79
2023-04-20T13:49:32.933Z,64.44
2023-04-20T13:54:34.429Z,69.98
2023-04-20T13:59:36.524Z,73.43
2023-04-20T14:04:38.114Z,68.75
2023-04-20T14:09:39.811Z,65.77
2023-04-20T14:14:41.453Z,66.04
2023-04-20T14:19:43.455Z,63.78
2023-04-20T14:24:45.016Z,62.68
2023-04-20T14:29:47.336Z,61.58
2023-04-20T14:34:48.878Z,63.79
2023-04-20T14:39:50.999Z,63.86
2023-04-20T14:44:53.359Z,60.08
2023-04-20T14:49:56.135Z,60.52
2023-04-20T14:54:57.878Z,61.04
2023-04-20T14:59:59.982Z,60.82
2023-04-20T15:05:01.980Z,61.54
2023-04-20T15:10:04.381Z,64.66
2023-04-20T15:15:06.652Z,61.32
2023-04-20T15:20:09.140Z,61.92
2023-04-20T15:25:11.105Z,57.00
2023-04-20T15:30:12.870Z,58.07
2023-04-20T15:35:14.761Z,57.96
2023-04-20T15:40:16.397Z,57.90
2023-04-20T15:45:18.364Z,56.03
2023-04-20T15:50:20.666Z,54.74
2023-04-20T15:55:22.544Z,51.43
2023-04-20T16:00:24.983Z,51.90
2023-04-20T16:05:26.591Z,54.32
2023-04-20T16:10:28.137Z,55.39
2023-04-20T16:15:29.763Z,56.20
2023-04-20T16:20:31.361Z,56.17
2023-04-20T16:25:32.883Z,59.54
2023-04-20T16:30:34.932Z,67.27
2023-04-20T16:35:36.638Z,71.95
2023-04-20T16:40:38.193Z,78.17
2023-04-20T16:45:40.026Z,79.56
2023-04-20T16:50:42.313Z,83.30
2023-04-20T16:55:44.061Z,84.37
2023-04-20T17:00:45.584Z,83.09
2023-04-20T17:05:47.225Z,87.17
2023-04-20T17:10:48.761Z,91.97
2023-04-20T17:15:50.270Z,94.87
2023-04-20T17:20:51.842Z,95.72
2023-04-20T17:25:54.412Z,94.17
2023-04-20T17:30:55.896Z,94.41
2023-04-20T17:35:57.531Z,94.98
2023-04-20T17:40:59.057Z,97.68
2023-04-20T17:46:00.659Z,100.00
2023-04-20T17:51:02.371Z,100.00
2023-04-20T17:56:03.999Z,100.00
2023-04-20T18:01:05.641Z,99.34
2023-04-20T18:06:07.355Z,100.00
2023-04-20T18:11:08.893Z,100.00
2023-04-20T18:16:10.440Z,100.00
2023-04-20T18:21:11.975Z,100.00
2023-04-20T18:26:13.501Z,100.00
2023-04-20T18:31:15.119Z,100.00
2023-04-20T18:36:16.769Z,100.00
2023-04-20T18:41:18.406Z,100.00
2023-04-20T18:46:20.099Z,100.00
2023-04-20T18:51:21.673Z,100.00
2023-04-20T18:56:23.209Z,100.00
2023-04-20T19:01:24.813Z,100.00
2023-04-20T19:06:26.519Z,100.00
2023-04-20T19:11:30.771Z,100.00
2023-04-20T19:16:33.705Z,100.00
2023-04-20T19:21:35.395Z,100.00
2023-04-20T19:26:36.928Z,100.00
2023-04-20T19:31:39.107Z,100.00
2023-04-20T19:36:41.037Z,100.00
2023-04-20T19:41:42.578Z,100.00
2023-04-20T19:46:44.146Z,100.00
2023-04-20T19:51:45.610Z,100.00
2023-04-20T19:56:47.144Z,100.00
2023-04-20T20:01:50.655Z,100.00
2023-04-20T20:06:52.488Z,100.00
2023-04-20T20:11:54.055Z,100.00
2023-04-20T20:16:55.548Z,100.00
2023-04-20T20:21:57.179Z,100.00
2023-04-20T20:26:58.668Z,100.00
2023-04-20T20:32:00.177Z,100.00
2023-04-20T20:37:01.687Z,100.00
2023-04-20T20:42:03.379Z,100.00
2023-04-20T20:47:06.093Z,100.00
2023-04-20T20:52:07.948Z,100.00
2023-04-20T20:57:10.359Z,100.00
2023-04-20T21:02:12.313Z,100.00
2023-04-20T21:07:14.560Z,100.00
2023-04-20T21:12:16.119Z,100.00
2023-04-20T21:17:18.526Z,100.00
2023-04-20T21:22:20.661Z,100.00
2023-04-20T21:27:22.930Z,100.00
2023-04-20T21:32:25.353Z,100.00
2023-04-20T21:37:27.245Z,100.00
2023-04-20T21:42:28.926Z,100.00
2023-04-20T21:47:31.228Z,100.00
2023-04-20T21:52:33.919Z,100.00
2023-04-20T21:57:35.411Z,100.00
2023-04-20T22:02:37.072Z,100.00
2023-04-20T22:07:39.489Z,100.00
2023-04-20T22:12:42.168Z,100.00
2023-04-20T22:17:44.406Z,100.00
2023-04-20T22:22:46.319Z,100.00
2023-04-20T22:27:48.201Z,100.00
2023-04-20T22:32:50.551Z,100.00
2023-04-20T22:37:52.299Z,100.00
2023-04-20T22:42:54.114Z,100.00
2023-04-20T22:47:56.146Z,100.00
2023-04-20T22:52:57.705Z,100.00
2023-04-20T22:57:59.643Z,100.00
2023-04-20T23:03:01.468Z,100.00
2023-04-20T23:08:03.427Z,100.00
2023-04-20T23:13:05.230Z,100.00
2023-04-20T23:18:07.246Z,100.00
2023-04-20T23:23:09.169Z,100.00
2023-04-20T23:28:10.748Z,100.00
2023-04-20T23:33:12.727Z,100.00
2023-04-20T23:38:15.222Z,100.00
2023-04-20T23:43:17.240Z,100.00
2023-04-20T23:48:18.758Z,100.00
2023-04-20T23:53:20.254Z,100.00
2023-04-20T23:58:25.887Z,100.00
